createdAt,value
2019-05-23T00:01:14.515Z,0.97
2019-05-23T00:04:01.597Z,1.07
2019-05-23T00:06:31.877Z,0.83
2019-05-23T00:09:00.912Z,0.93
2019-05-23T00:11:40.219Z,0.90
2019-05-23T00:14:24.517Z,1.20
2019-05-23T00:16:54.841Z,0.93
2019-05-23T00:19:23.951Z,1.07
2019-05-23T00:21:53.986Z,1.00
2019-05-23T00:24:24.126Z,0.90
2019-05-23T00:26:53.029Z,0.70
2019-05-23T00:29:22.727Z,0.83
2019-05-23T00:31:55.880Z,1.13
2019-05-23T00:34:25.765Z,1.30
2019-05-23T00:36:55.018Z,0.97
2019-05-23T00:39:24.243Z,1.00
2019-05-23T00:41:53.846Z,1.20
2019-05-23T00:44:23.137Z,0.90
2019-05-23T00:46:52.762Z,1.10
2019-05-23T00:49:22.170Z,1.00
2019-05-23T00:51:50.870Z,1.00
2019-05-23T00:54:20.813Z,0.90
2019-05-23T00:56:50.310Z,1.40
2019-05-23T00:59:26.977Z,1.10
2019-05-23T01:01:50.252Z,1.10
2019-05-23T01:04:19.186Z,0.90
2019-05-23T01:06:49.368Z,1.30
2019-05-23T01:09:18.108Z,1.17
2019-05-23T01:11:47.602Z,1.00
2019-05-23T01:14:17.017Z,1.20
2019-05-23T01:16:45.760Z,1.10
2019-05-23T01:19:15.471Z,1.40
2019-05-23T01:21:52.605Z,1.40
2019-05-23T01:24:26.156Z,1.27
2019-05-23T01:26:54.962Z,1.10
2019-05-23T01:29:24.708Z,1.20
2019-05-23T01:32:01.103Z,1.33
2019-05-23T01:34:30.849Z,1.50
2019-05-23T01:36:59.759Z,1.17
2019-05-23T01:39:28.460Z,1.23
2019-05-23T01:41:57.199Z,1.00
2019-05-23T01:44:26.407Z,1.30
2019-05-23T01:46:55.827Z,1.30
2019-05-23T01:49:25.258Z,1.30
2019-05-23T01:51:54.759Z,0.93
2019-05-23T01:54:23.760Z,1.10
2019-05-23T01:56:52.499Z,1.00
2019-05-23T01:59:21.194Z,1.30
2019-05-23T02:01:49.897Z,1.40
2019-05-23T02:04:18.935Z,1.33
2019-05-23T02:06:47.943Z,1.70
2019-05-23T02:09:16.948Z,1.23
2019-05-23T02:11:45.691Z,1.40
2019-05-23T02:14:14.597Z,1.23
2019-05-23T02:16:45.554Z,1.23
2019-05-23T02:19:14.493Z,1.30
2019-05-23T02:21:44.913Z,1.07
2019-05-23T02:24:14.603Z,1.30
2019-05-23T02:26:44.652Z,1.07
2019-05-23T02:29:14.544Z,1.40
2019-05-23T02:31:43.243Z,1.20
2019-05-23T02:34:12.081Z,1.03
2019-05-23T02:36:41.093Z,1.23
2019-05-23T02:39:17.145Z,1.23
2019-05-23T02:42:03.762Z,1.20
2019-05-23T02:44:34.060Z,1.13
2019-05-23T02:47:21.197Z,1.13
2019-05-23T02:49:52.040Z,1.83
2019-05-23T02:52:23.854Z,1.97
2019-05-23T02:54:54.278Z,1.73
2019-05-23T02:57:25.529Z,1.60
2019-05-23T02:59:57.146Z,1.53
2019-05-23T03:02:30.490Z,1.03
2019-05-23T03:05:00.129Z,1.27
2019-05-23T03:07:33.112Z,1.20
2019-05-23T03:10:02.647Z,1.10
2019-05-23T03:12:31.843Z,1.13
2019-05-23T03:15:02.902Z,1.00
2019-05-23T03:17:34.699Z,0.97
2019-05-23T03:20:06.194Z,1.10
2019-05-23T03:22:54.265Z,1.30
2019-05-23T03:25:39.240Z,1.20
2019-05-23T03:28:09.778Z,1.20
2019-05-23T03:30:40.403Z,1.37
2019-05-23T03:33:10.872Z,1.20
2019-05-23T03:35:41.408Z,1.00
2019-05-23T03:38:11.096Z,1.00
2019-05-23T03:40:40.308Z,1.07
2019-05-23T03:43:10.136Z,0.90
2019-05-23T03:45:44.254Z,0.90
2019-05-23T03:48:13.790Z,0.97
2019-05-23T03:50:44.418Z,0.93
2019-05-23T03:53:13.136Z,0.87
2019-05-23T03:55:42.789Z,0.93
2019-05-23T03:58:12.993Z,1.00
2019-05-23T04:00:43.385Z,1.20
2019-05-23T04:03:12.709Z,1.00
2019-05-23T04:05:41.362Z,1.07
2019-05-23T04:08:11.885Z,0.93
2019-05-23T04:10:41.285Z,1.10
2019-05-23T04:13:09.993Z,1.00
2019-05-23T04:15:39.029Z,0.90
2019-05-23T04:18:08.062Z,1.10
2019-05-23T04:20:36.996Z,1.00
2019-05-23T04:23:05.942Z,1.03
2019-05-23T04:25:34.836Z,0.80
2019-05-23T04:28:04.468Z,1.03
2019-05-23T04:30:34.274Z,1.10
2019-05-23T04:33:03.714Z,1.43
2019-05-23T04:35:32.454Z,0.80
2019-05-23T04:38:01.648Z,1.10
2019-05-23T04:40:30.541Z,1.03
2019-05-23T04:42:59.294Z,1.20
2019-05-23T04:45:28.895Z,0.90
2019-05-23T04:47:57.615Z,0.93
2019-05-23T04:50:26.656Z,1.30
2019-05-23T04:52:55.642Z,0.93
2019-05-23T04:55:25.536Z,1.27
2019-05-23T04:57:54.481Z,1.00
2019-05-23T05:00:23.803Z,1.07
2019-05-23T05:02:53.998Z,1.30
2019-05-23T05:05:23.152Z,1.20
2019-05-23T05:07:51.855Z,0.87
2019-05-23T05:10:22.953Z,1.20
2019-05-23T05:12:52.230Z,0.93
2019-05-23T05:15:21.045Z,1.23
2019-05-23T05:17:49.847Z,1.20
2019-05-23T05:20:19.314Z,1.30
2019-05-23T05:22:48.173Z,0.90
2019-05-23T05:25:17.575Z,1.33
2019-05-23T05:27:47.395Z,1.30
2019-05-23T05:30:16.515Z,1.20
2019-05-23T05:32:45.888Z,0.97
2019-05-23T05:35:14.734Z,1.10
2019-05-23T05:37:43.462Z,1.20
2019-05-23T05:40:13.921Z,0.93
2019-05-23T05:42:44.149Z,1.10
2019-05-23T05:45:13.654Z,1.13
2019-05-23T05:47:42.849Z,1.10
2019-05-23T05:50:13.796Z,1.30
2019-05-23T05:52:42.906Z,0.90
2019-05-23T05:55:13.439Z,1.40
2019-05-23T05:57:42.688Z,1.27
2019-05-23T06:00:29.988Z,1.20
2019-05-23T06:03:05.029Z,1.30
2019-05-23T06:05:32.281Z,1.10
2019-05-23T06:08:01.476Z,1.30
2019-05-23T06:10:30.619Z,1.27
2019-05-23T06:12:59.316Z,1.10
2019-05-23T06:15:28.310Z,1.40
2019-05-23T06:17:57.051Z,1.10
2019-05-23T06:20:26.207Z,1.30
2019-05-23T06:22:55.617Z,1.50
2019-05-23T06:25:25.368Z,1.40
2019-05-23T06:27:54.290Z,1.50
2019-05-23T06:30:24.892Z,1.70
2019-05-23T06:32:54.023Z,1.50
2019-05-23T06:35:22.838Z,1.87
2019-05-23T06:37:51.847Z,1.80
2019-05-23T06:40:20.657Z,2.27
2019-05-23T06:42:50.873Z,1.90
2019-05-23T06:45:20.844Z,2.00
2019-05-23T06:47:49.821Z,2.10
2019-05-23T06:50:20.539Z,2.57
2019-05-23T06:52:49.218Z,2.47
2019-05-23T06:55:17.968Z,2.67
2019-05-23T06:57:46.656Z,2.57
2019-05-23T07:00:17.363Z,2.70
2019-05-23T07:02:47.388Z,2.70
2019-05-23T07:05:18.867Z,2.60
2019-05-23T07:07:47.619Z,2.60
2019-05-23T07:10:16.667Z,3.03
2019-05-23T07:12:45.362Z,2.80
2019-05-23T07:15:14.280Z,2.30
2019-05-23T07:17:42.980Z,2.77
2019-05-23T07:20:12.871Z,3.00
2019-05-23T07:22:41.574Z,3.23
2019-05-23T07:25:10.504Z,2.70
2019-05-23T07:27:39.651Z,2.70
2019-05-23T07:30:13.972Z,2.80
2019-05-23T07:32:42.809Z,2.83
2019-05-23T07:35:11.627Z,2.73
2019-05-23T07:37:40.313Z,2.63
2019-05-23T07:40:09.393Z,2.53
2019-05-23T07:42:38.693Z,3.10
2019-05-23T07:45:09.369Z,2.40
2019-05-23T07:47:40.183Z,2.40
2019-05-23T07:50:08.610Z,2.70
2019-05-23T07:52:37.410Z,2.60
2019-05-23T07:55:08.438Z,2.67
2019-05-23T07:57:37.212Z,2.40
2019-05-23T08:00:08.487Z,2.50
2019-05-23T08:02:40.243Z,2.30
2019-05-23T08:05:10.726Z,2.60
2019-05-23T08:07:39.835Z,2.07
2019-05-23T08:10:09.003Z,2.83
2019-05-23T08:12:37.808Z,2.33
2019-05-23T08:15:07.012Z,2.43
2019-05-23T08:17:36.066Z,2.77
2019-05-23T08:20:05.647Z,2.97
2019-05-23T08:22:34.455Z,2.70
2019-05-23T08:25:03.433Z,2.40
2019-05-23T08:27:33.888Z,2.63
2019-05-23T08:30:03.695Z,2.97
2019-05-23T08:32:32.860Z,3.20
2019-05-23T08:35:01.882Z,2.90
2019-05-23T08:37:31.545Z,3.80
2019-05-23T08:40:00.536Z,3.43
2019-05-23T08:42:30.127Z,3.60
2019-05-23T08:44:58.824Z,3.07
2019-05-23T08:47:27.768Z,2.90
2019-05-23T08:49:56.479Z,3.53
2019-05-23T08:52:25.171Z,3.57
2019-05-23T08:54:56.864Z,3.50
2019-05-23T08:57:25.586Z,2.87
2019-05-23T08:59:54.286Z,3.13
2019-05-23T09:02:23.760Z,2.87
2019-05-23T09:05:04.679Z,2.50
2019-05-23T09:07:23.131Z,3.23
2019-05-23T09:09:51.988Z,2.83
2019-05-23T09:12:20.682Z,2.87
2019-05-23T09:14:49.556Z,2.87
2019-05-23T09:17:19.189Z,2.30
2019-05-23T09:19:47.815Z,2.50
2019-05-23T09:22:16.533Z,2.60
2019-05-23T09:24:45.255Z,2.37
2019-05-23T09:27:13.956Z,2.20
2019-05-23T09:29:42.651Z,2.23
2019-05-23T09:32:11.687Z,1.73
2019-05-23T09:34:40.390Z,1.83
2019-05-23T09:37:09.649Z,1.60
2019-05-23T09:39:39.950Z,1.53
2019-05-23T09:42:12.063Z,1.53
2019-05-23T09:44:39.097Z,1.90
2019-05-23T09:47:07.819Z,2.23
2019-05-23T09:49:36.518Z,2.00
2019-05-23T09:52:06.181Z,1.87
2019-05-23T09:54:35.209Z,2.13
2019-05-23T09:57:05.614Z,2.17
2019-05-23T09:59:34.403Z,2.20
2019-05-23T10:02:03.388Z,2.20
2019-05-23T10:04:32.397Z,1.50
2019-05-23T10:07:01.130Z,1.87
2019-05-23T10:09:29.962Z,1.70
2019-05-23T10:11:58.652Z,2.00
2019-05-23T10:14:34.626Z,1.60
2019-05-23T10:17:03.447Z,2.17
2019-05-23T10:19:32.359Z,1.57
2019-05-23T10:22:01.060Z,1.50
2019-05-23T10:24:29.792Z,1.50
2019-05-23T10:26:58.505Z,1.40
2019-05-23T10:29:27.208Z,1.67
2019-05-23T10:31:55.937Z,1.57
2019-05-23T10:34:24.645Z,1.70
2019-05-23T10:36:53.296Z,1.63
2019-05-23T10:39:22.319Z,1.53
2019-05-23T10:41:51.138Z,1.43
2019-05-23T10:44:19.836Z,1.47
2019-05-23T10:46:48.577Z,1.37
2019-05-23T10:49:17.200Z,1.60
2019-05-23T10:51:45.907Z,1.50
2019-05-23T10:54:18.116Z,1.43
2019-05-23T10:56:46.949Z,1.33
2019-05-23T10:59:15.743Z,1.20
2019-05-23T11:01:44.764Z,1.40
2019-05-23T11:04:13.470Z,1.30
2019-05-23T11:06:43.058Z,1.30
2019-05-23T11:09:12.513Z,1.00
2019-05-23T11:11:41.354Z,1.50
2019-05-23T11:14:11.106Z,1.00
2019-05-23T11:16:40.534Z,1.40
2019-05-23T11:19:10.802Z,1.30
2019-05-23T11:21:39.496Z,1.07
2019-05-23T11:24:08.427Z,1.60
2019-05-23T11:26:37.055Z,1.07
2019-05-23T11:29:07.267Z,1.10
2019-05-23T11:31:36.183Z,1.00
2019-05-23T11:34:05.354Z,1.20
2019-05-23T11:36:36.540Z,1.20
2019-05-23T11:39:09.104Z,1.10
2019-05-23T11:41:37.729Z,1.00
2019-05-23T11:44:06.732Z,1.10
2019-05-23T11:46:37.144Z,1.37
2019-05-23T11:49:06.340Z,0.97
2019-05-23T11:51:35.747Z,1.40
2019-05-23T11:54:08.476Z,1.20
2019-05-23T11:56:37.103Z,1.20
2019-05-23T11:59:05.971Z,1.10
2019-05-23T12:01:39.106Z,1.20
2019-05-23T12:04:09.373Z,1.30
2019-05-23T12:06:54.359Z,1.13
2019-05-23T12:09:14.275Z,1.30
2019-05-23T12:11:43.573Z,1.20
2019-05-23T12:14:12.556Z,1.30
2019-05-23T12:16:41.853Z,1.10
2019-05-23T12:19:11.674Z,1.23
2019-05-23T12:21:40.512Z,1.60
2019-05-23T12:24:09.720Z,1.40
2019-05-23T12:26:38.524Z,1.40
2019-05-23T12:29:07.245Z,1.47
2019-05-23T12:31:35.982Z,1.67
2019-05-23T12:34:04.883Z,1.50
2019-05-23T12:36:33.811Z,1.53
2019-05-23T12:39:02.624Z,1.50
2019-05-23T12:41:31.406Z,1.83
2019-05-23T12:44:00.069Z,1.50
2019-05-23T12:46:28.772Z,2.17
2019-05-23T12:48:59.845Z,1.60
2019-05-23T12:51:44.426Z,1.80
2019-05-23T12:54:13.238Z,1.80
2019-05-23T12:56:41.951Z,1.77
2019-05-23T12:59:10.990Z,1.60
2019-05-23T13:01:41.361Z,1.97
2019-05-23T13:04:11.031Z,1.93
2019-05-23T13:06:39.871Z,1.83
2019-05-23T13:09:09.695Z,1.90
2019-05-23T13:11:38.964Z,1.67
2019-05-23T13:14:08.596Z,2.00
2019-05-23T13:16:37.591Z,2.23
2019-05-23T13:19:06.499Z,2.03
2019-05-23T13:21:35.419Z,2.30
2019-05-23T13:24:04.455Z,1.87
2019-05-23T13:26:33.230Z,1.80
2019-05-23T13:29:01.907Z,1.97
2019-05-23T13:31:30.706Z,2.37
2019-05-23T13:33:59.437Z,2.70
2019-05-23T13:36:28.159Z,2.27
2019-05-23T13:38:57.895Z,4.30
2019-05-23T13:41:26.533Z,2.30
2019-05-23T13:43:55.266Z,2.20
2019-05-23T13:46:23.896Z,2.43
2019-05-23T13:48:52.602Z,2.03
2019-05-23T13:51:21.363Z,2.30
2019-05-23T13:53:50.177Z,2.57
2019-05-23T13:56:19.545Z,2.03
2019-05-23T13:58:48.307Z,2.40
2019-05-23T14:01:18.212Z,2.57
2019-05-23T14:03:47.029Z,2.10
2019-05-23T14:06:15.862Z,2.57
2019-05-23T14:08:44.766Z,2.20
2019-05-23T14:11:13.554Z,1.90
2019-05-23T14:13:43.313Z,2.10
2019-05-23T14:16:12.232Z,1.80
2019-05-23T14:18:40.906Z,1.90
2019-05-23T14:21:09.742Z,2.00
2019-05-23T14:23:38.538Z,2.10
2019-05-23T14:26:08.804Z,2.33
2019-05-23T14:28:37.637Z,1.93
2019-05-23T14:31:07.903Z,2.40
2019-05-23T14:33:47.439Z,2.27
2019-05-23T14:36:36.005Z,2.30
2019-05-23T14:39:09.241Z,2.30
2019-05-23T14:41:45.395Z,2.60
2019-05-23T14:44:10.139Z,2.80
2019-05-23T14:46:46.373Z,2.70
2019-05-23T14:49:25.493Z,2.80
2019-05-23T14:51:58.408Z,2.50
2019-05-23T14:54:30.805Z,2.47
2019-05-23T14:56:59.697Z,3.10
2019-05-23T14:59:28.533Z,2.60
2019-05-23T15:01:58.237Z,2.53
2019-05-23T15:04:26.959Z,3.30
2019-05-23T15:06:55.711Z,2.70
2019-05-23T15:09:24.612Z,2.70
2019-05-23T15:11:53.234Z,2.33
2019-05-23T15:14:21.972Z,2.53
2019-05-23T15:16:50.688Z,2.37
2019-05-23T15:19:38.786Z,1.90
2019-05-23T15:21:49.776Z,2.20
2019-05-23T15:24:18.397Z,2.30
2019-05-23T15:26:47.391Z,2.60
2019-05-23T15:29:16.123Z,2.73
2019-05-23T15:32:01.154Z,2.50
2019-05-23T15:34:15.286Z,2.47
2019-05-23T15:36:44.000Z,2.40
2019-05-23T15:39:12.700Z,2.40
2019-05-23T15:41:41.326Z,2.67
2019-05-23T15:44:24.324Z,2.50
2019-05-23T15:46:41.393Z,2.50
2019-05-23T15:49:11.488Z,2.50
2019-05-23T15:51:56.695Z,2.80
2019-05-23T15:54:26.968Z,2.90
2019-05-23T15:56:57.218Z,2.53
2019-05-23T15:59:27.527Z,2.60
2019-05-23T16:02:06.709Z,3.10
2019-05-23T16:04:35.937Z,3.50
2019-05-23T16:07:05.521Z,2.87
2019-05-23T16:09:34.680Z,3.63
2019-05-23T16:12:03.837Z,5.73
2019-05-23T16:14:33.473Z,2.83
2019-05-23T16:17:02.178Z,2.70
2019-05-23T16:19:30.924Z,3.03
2019-05-23T16:21:59.644Z,2.83
2019-05-23T16:24:28.422Z,3.27
2019-05-23T16:26:57.463Z,3.00
2019-05-23T16:29:26.472Z,2.80
2019-05-23T16:31:55.269Z,3.03
2019-05-23T16:34:24.000Z,3.53
2019-05-23T16:36:52.623Z,4.07
2019-05-23T16:39:21.926Z,3.30
2019-05-23T16:41:50.680Z,2.90
2019-05-23T16:44:19.392Z,2.83
2019-05-23T16:46:48.186Z,3.27
2019-05-23T16:49:16.927Z,3.13
2019-05-23T16:51:45.619Z,3.20
2019-05-23T16:54:16.129Z,2.90
2019-05-23T16:56:46.541Z,3.33
2019-05-23T16:59:28.657Z,3.20
2019-05-23T17:02:10.805Z,3.10
2019-05-23T17:05:06.223Z,3.40
2019-05-23T17:07:37.942Z,2.50
2019-05-23T17:10:11.783Z,3.50
2019-05-23T17:12:45.211Z,3.20
2019-05-23T17:15:18.970Z,3.80
2019-05-23T17:18:02.964Z,3.07
2019-05-23T17:20:27.348Z,3.33
2019-05-23T17:22:57.727Z,3.40
2019-05-23T17:25:28.041Z,3.83
2019-05-23T17:28:07.374Z,2.97
2019-05-23T17:30:39.137Z,3.33
2019-05-23T17:33:08.345Z,3.00
2019-05-23T17:35:37.229Z,3.07
2019-05-23T17:38:05.965Z,3.57
2019-05-23T17:40:35.024Z,3.87
2019-05-23T17:43:03.816Z,3.47
2019-05-23T17:45:33.161Z,3.57
2019-05-23T17:48:03.711Z,3.83
2019-05-23T17:50:34.973Z,3.57
2019-05-23T17:53:03.479Z,3.43
2019-05-23T17:55:33.097Z,3.70
2019-05-23T17:58:01.909Z,3.87
2019-05-23T18:00:32.334Z,4.10
2019-05-23T18:03:01.135Z,3.47
2019-05-23T18:05:30.036Z,4.33
2019-05-23T18:08:00.473Z,3.83
2019-05-23T18:10:43.768Z,3.73
2019-05-23T18:13:00.189Z,3.87
2019-05-23T18:15:29.749Z,3.53
2019-05-23T18:17:59.017Z,3.77
2019-05-23T18:20:28.265Z,4.00
2019-05-23T18:22:57.093Z,4.17
2019-05-23T18:25:27.700Z,4.10
2019-05-23T18:27:56.497Z,4.50
2019-05-23T18:30:32.718Z,4.23
2019-05-23T18:33:02.556Z,4.83
2019-05-23T18:35:33.097Z,8.10
2019-05-23T18:38:02.528Z,12.03
2019-05-23T18:40:31.333Z,10.73
2019-05-23T18:43:00.053Z,9.30
2019-05-23T18:45:30.499Z,6.50
2019-05-23T18:48:00.610Z,6.07
2019-05-23T18:50:31.107Z,4.67
2019-05-23T18:52:59.951Z,4.37
2019-05-23T18:55:28.911Z,4.50
2019-05-23T18:57:57.599Z,4.17
2019-05-23T19:00:55.710Z,4.30
2019-05-23T19:03:24.543Z,4.23
2019-05-23T19:05:53.308Z,6.00
2019-05-23T19:08:22.757Z,4.60
2019-05-23T19:10:51.467Z,4.43
2019-05-23T19:13:20.177Z,4.60
2019-05-23T19:15:48.920Z,3.97
2019-05-23T19:18:17.731Z,4.30
2019-05-23T19:20:46.556Z,3.97
2019-05-23T19:23:15.801Z,4.73
2019-05-23T19:25:45.710Z,3.90
2019-05-23T19:28:14.700Z,4.50
2019-05-23T19:30:44.347Z,4.23
2019-05-23T19:33:13.085Z,4.53
2019-05-23T19:35:41.781Z,4.50
2019-05-23T19:38:12.194Z,4.17
2019-05-23T19:40:41.930Z,4.27
2019-05-23T19:43:10.633Z,3.93
2019-05-23T19:45:39.769Z,3.70
2019-05-23T19:48:08.669Z,3.83
2019-05-23T19:50:38.714Z,4.03
2019-05-23T19:53:07.450Z,3.77
2019-05-23T19:55:40.007Z,3.53
2019-05-23T19:58:08.080Z,3.90
2019-05-23T20:00:36.825Z,3.70
2019-05-23T20:03:05.918Z,3.60
2019-05-23T20:05:36.313Z,3.50
2019-05-23T20:08:06.150Z,3.77
2019-05-23T20:10:35.342Z,3.67
2019-05-23T20:13:04.039Z,3.40
2019-05-23T20:15:33.180Z,3.87
2019-05-23T20:18:02.165Z,3.73
2019-05-23T20:20:32.604Z,3.90
2019-05-23T20:23:01.525Z,4.00
2019-05-23T20:25:30.323Z,3.57
2019-05-23T20:27:59.065Z,3.53
2019-05-23T20:30:42.781Z,3.67
2019-05-23T20:33:11.477Z,3.43
2019-05-23T20:35:40.196Z,3.27
2019-05-23T20:38:09.271Z,3.00
2019-05-23T20:40:39.089Z,3.20
2019-05-23T20:43:07.856Z,4.20
2019-05-23T20:45:37.288Z,3.30
2019-05-23T20:48:08.520Z,3.27
2019-05-23T20:50:37.224Z,3.20
2019-05-23T20:53:06.823Z,3.27
2019-05-23T20:55:35.921Z,3.10
2019-05-23T20:58:05.511Z,3.27
2019-05-23T21:00:36.088Z,3.20
2019-05-23T21:03:05.086Z,3.10
2019-05-23T21:05:33.778Z,3.30
2019-05-23T21:08:02.524Z,3.00
2019-05-23T21:10:39.625Z,3.47
2019-05-23T21:13:08.365Z,3.23
2019-05-23T21:15:37.066Z,3.50
2019-05-23T21:18:06.568Z,3.13
2019-05-23T21:20:36.279Z,3.37
2019-05-23T21:23:05.142Z,3.30
2019-05-23T21:25:35.847Z,3.57
2019-05-23T21:28:04.705Z,3.10
2019-05-23T21:30:33.406Z,3.33
2019-05-23T21:33:02.101Z,3.80
2019-05-23T21:35:31.667Z,3.30
2019-05-23T21:38:00.363Z,4.00
2019-05-23T21:40:37.829Z,4.13
2019-05-23T21:43:06.535Z,3.97
2019-05-23T21:45:35.227Z,3.70
2019-05-23T21:48:04.673Z,3.27
2019-05-23T21:50:33.573Z,3.40
2019-05-23T21:53:02.660Z,3.67
2019-05-23T21:55:42.727Z,4.33
2019-05-23T21:58:14.857Z,3.70
2019-05-23T22:01:08.757Z,4.10
2019-05-23T22:03:55.008Z,3.50
2019-05-23T22:06:41.062Z,3.47
2019-05-23T22:09:11.321Z,3.50
2019-05-23T22:11:40.118Z,3.80
2019-05-23T22:14:08.892Z,4.23
2019-05-23T22:16:37.926Z,3.20
2019-05-23T22:19:09.193Z,4.17
2019-05-23T22:21:38.279Z,3.60
2019-05-23T22:24:08.532Z,3.10
2019-05-23T22:26:37.381Z,3.90
2019-05-23T22:29:06.634Z,4.10
2019-05-23T22:31:36.017Z,3.47
2019-05-23T22:34:24.786Z,3.30
2019-05-23T22:36:53.784Z,3.43
2019-05-23T22:39:22.666Z,3.40
2019-05-23T22:41:51.330Z,3.03
2019-05-23T22:44:20.424Z,3.93
2019-05-23T22:46:49.222Z,3.67
2019-05-23T22:49:18.133Z,3.57
2019-05-23T22:51:46.860Z,3.60
2019-05-23T22:54:15.566Z,3.37
2019-05-23T22:56:44.296Z,3.67
2019-05-23T22:59:13.152Z,3.17
2019-05-23T23:01:41.879Z,3.20
2019-05-23T23:04:11.080Z,3.70
2019-05-23T23:06:39.779Z,3.50
2019-05-23T23:09:08.481Z,3.47
2019-05-23T23:11:37.217Z,3.20
2019-05-23T23:14:06.710Z,2.83
2019-05-23T23:16:35.413Z,2.87
2019-05-23T23:19:04.446Z,3.00
2019-05-23T23:21:33.168Z,3.30
2019-05-23T23:24:01.796Z,3.03
2019-05-23T23:26:30.531Z,2.90
2019-05-23T23:28:59.526Z,3.03
2019-05-23T23:31:28.325Z,2.83
2019-05-23T23:33:57.046Z,3.37
2019-05-23T23:36:25.753Z,3.63
2019-05-23T23:38:54.454Z,3.23
2019-05-23T23:41:23.187Z,3.37
2019-05-23T23:43:59.148Z,3.13
2019-05-23T23:46:39.893Z,3.03
2019-05-23T23:49:26.132Z,3.40
2019-05-23T23:52:12.302Z,3.57
2019-05-23T23:54:58.740Z,3.40
2019-05-23T23:57:46.209Z,3.33
